Terminal Aerodrome Forecast
Issued by NWS

Current Version | Previous Version | Text Only | Print | Product List | Glossary On
Versions: 1 2 3 4 5 6 7 8 9 10 11 12 13 14 15 16 17 18 19 20 21 22 23 24 25 26 27 28 29 30
000
FTUS41 KBTV 280523
TAFPBG
TAF
KPBG 280523Z 2806/2906 35015KT P6SM SCT015 SCT025 BKN035
      TEMPO 2806/2808 3SM -SHSN BR BKN025
     FM280800 35011KT P6SM SCT025 OVC100
     FM281400 34007KT P6SM FEW040 SCT130
     FM282000 VRB03KT P6SM SKC=

USA.gov is the U.S. government's official web portal to all federal, state and local government web resources and services.